Time;durP1;ratioP1;P1;durP2;ratioP2;P2;SDS_P1;SDS_P2;PMS_P1;PMS_P2;Temp;Humidity;BMP_temperature;BMP_pressure;BME280_temperature;BME280_humidity;BME280_pressure;Samples;Min_cycle;Max_cycle;Signal;HPM_P1;HPM_P2
2023/05/06 00:03:47;;;;;;;;;;;;;;;12.39;68.32324;101704.5;;;;-69
2023/05/06 00:05:49;;;;;;;6.7;3.8;;;;;;;;;;;;;-68
2023/05/06 00:08:51;;;;;;;;;;;;;;;12.38;68.63281;101705.2;;;;-69
2023/05/06 00:13:47;;;;;;;;;;;;;;;12.32;68.89258;101705.3;;;;-70
2023/05/06 00:18:47;;;;;;;;;;;;;;;12.29;68.78711;101698.3;;;;-70
2023/05/06 00:23:47;;;;;;;;;;;;;;;12.25;69.77344;101697;;;;-70
2023/05/06 00:28:47;;;;;;;;;;;;;;;12.2;69.22949;101695;;;;-69
2023/05/06 00:33:47;;;;;;;;;;;;;;;12.19;69.45117;101689.6;;;;-70
2023/05/06 00:35:51;;;;;;;8.6;4.6;;;;;;;;;;;;;-70
2023/05/06 00:38:47;;;;;;;;;;;;;;;12.15;68.77637;101687.1;;;;-69
2023/05/06 00:43:47;;;;;;;;;;;;;;;12.13;69.75293;101686.9;;;;-69
2023/05/06 00:48:47;;;;;;;;;;;;;;;12.07;69.16504;101681.5;;;;-70
2023/05/06 00:53:47;;;;;;;;;;;;;;;12.05;68.75;101683.8;;;;-73
2023/05/06 00:58:47;;;;;;;;;;;;;;;12.02;69.69043;101677.9;;;;-71
2023/05/06 01:03:47;;;;;;;;;;;;;;;12;69.82129;101671;;;;-69
2023/05/06 01:05:57;;;;;;;8.4;5.1;;;;;;;;;;;;;-70
2023/05/06 01:08:51;;;;;;;;;;;;;;;12;69.69922;101675.8;;;;-69
2023/05/06 01:13:49;;;;;;;;;;;;;;;12;70.37793;101675;;;;-70
2023/05/06 01:18:47;;;;;;;;;;;;;;;12.02;70.23633;101669;;;;-70
2023/05/06 01:24:00;;;;;;;;;;;;;;;12.01;70.23535;101664.5;;;;-69
2023/05/06 01:28:47;;;;;;;;;;;;;;;12;70.05566;101668.4;;;;-69
2023/05/06 01:33:49;;;;;;;;;;;;;;;12.01;69.8457;101681.4;;;;-68
2023/05/06 01:36:02;;;;;;;9.3;5.4;;;;;;;;;;;;;-69
2023/05/06 01:38:51;;;;;;;;;;;;;;;12.01;69.99023;101675.5;;;;-69
2023/05/06 01:43:48;;;;;;;;;;;;;;;12.02;70.23633;101672.2;;;;-70
2023/05/06 01:48:48;;;;;;;;;;;;;;;12.04;69.88281;101670.1;;;;-70
2023/05/06 01:53:47;;;;;;;;;;;;;;;12.03;69.77051;101678.7;;;;-69
2023/05/06 01:58:46;;;;;;;;;;;;;;;12;70.14453;101676.3;;;;-69
2023/05/06 02:03:47;;;;;;;;;;;;;;;12.01;70.0127;101683.1;;;;-69
2023/05/06 02:05:56;;;;;;;9.9;6.2;;;;;;;;;;;;;-70
2023/05/06 02:08:47;;;;;;;;;;;;;;;12.02;69.87988;101682;;;;-69
2023/05/06 02:13:47;;;;;;;;;;;;;;;12.01;71.01465;101687.5;;;;-72
2023/05/06 02:18:47;;;;;;;;;;;;;;;11.99;71.56836;101677.1;;;;-70
2023/05/06 02:23:47;;;;;;;;;;;;;;;11.97;71.78613;101680.8;;;;-70
2023/05/06 02:28:47;;;;;;;;;;;;;;;11.95;71.00586;101683.2;;;;-71
2023/05/06 02:33:47;;;;;;;;;;;;;;;11.92;71.78027;101686.6;;;;-68
2023/05/06 02:35:57;;;;;;;11.7;6.7;;;;;;;;;;;;;-69
2023/05/06 02:38:47;;;;;;;;;;;;;;;11.85;72.16895;101685.2;;;;-70
2023/05/06 02:43:46;;;;;;;;;;;;;;;11.82;71.91992;101685.5;;;;-68
2023/05/06 02:48:47;;;;;;;;;;;;;;;11.8;72.30469;101684.1;;;;-70
2023/05/06 02:53:47;;;;;;;;;;;;;;;11.76;72.00879;101678.3;;;;-70
2023/05/06 02:58:47;;;;;;;;;;;;;;;11.71;71.57813;101681.3;;;;-69
2023/05/06 03:03:47;;;;;;;;;;;;;;;11.66;73.07129;101681.8;;;;-69
2023/05/06 03:05:59;;;;;;;11.7;7.4;;;;;;;;;;;;;-69
2023/05/06 03:08:47;;;;;;;;;;;;;;;11.62;72.03125;101685.9;;;;-69
2023/05/06 03:13:47;;;;;;;;;;;;;;;11.57;72.24609;101683.2;;;;-69
2023/05/06 03:18:47;;;;;;;;;;;;;;;11.53;72.18359;101673.4;;;;-71
2023/05/06 03:23:47;;;;;;;;;;;;;;;11.48;72.30762;101674;;;;-70
2023/05/06 03:28:47;;;;;;;;;;;;;;;11.45;72.64551;101684.1;;;;-70
2023/05/06 03:33:47;;;;;;;;;;;;;;;11.4;71.88281;101682.5;;;;-70
2023/05/06 03:36:00;;;;;;;11.4;7.3;;;;;;;;;;;;;-69
2023/05/06 03:38:47;;;;;;;;;;;;;;;11.37;71.74609;101677.6;;;;-70
2023/05/06 03:43:47;;;;;;;;;;;;;;;11.29;71.4541;101681.2;;;;-70
2023/05/06 03:48:47;;;;;;;;;;;;;;;11.25;71.63672;101679.6;;;;-70
2023/05/06 03:53:47;;;;;;;;;;;;;;;11.18;71.52441;101678.2;;;;-70
2023/05/06 03:58:47;;;;;;;;;;;;;;;11.14;71.36133;101678.6;;;;-69
2023/05/06 04:03:47;;;;;;;;;;;;;;;11.07;71.20801;101681.5;;;;-69
2023/05/06 04:06:02;;;;;;;10.4;6.8;;;;;;;;;;;;;-70
2023/05/06 04:08:47;;;;;;;;;;;;;;;11.03;70.91113;101684.5;;;;-69
2023/05/06 04:13:47;;;;;;;;;;;;;;;11.02;70.53125;101682.7;;;;-68
2023/05/06 04:18:48;;;;;;;;;;;;;;;10.97;70.40039;101681.1;;;;-69
2023/05/06 04:23:47;;;;;;;;;;;;;;;10.93;70.50586;101684.7;;;;-69
2023/05/06 04:28:47;;;;;;;;;;;;;;;10.9;70.3125;101688.4;;;;-69
2023/05/06 04:33:47;;;;;;;;;;;;;;;10.89;70.72363;101694.1;;;;-69
2023/05/06 04:36:03;;;;;;;11.2;7;;;;;;;;;;;;;-69
2023/05/06 04:38:47;;;;;;;;;;;;;;;10.87;71.69629;101702.4;;;;-69
2023/05/06 04:43:46;;;;;;;;;;;;;;;10.89;70.87793;101708.9;;;;-69
2023/05/06 04:48:47;;;;;;;;;;;;;;;10.91;71.14746;101706.3;;;;-69
2023/05/06 04:53:47;;;;;;;;;;;;;;;10.95;70.56543;101708.8;;;;-70
2023/05/06 04:58:47;;;;;;;;;;;;;;;10.98;70.85938;101718.2;;;;-69
2023/05/06 05:03:47;;;;;;;;;;;;;;;11.03;71.05664;101719.4;;;;-68
2023/05/06 05:06:05;;;;;;;9.9;6.2;;;;;;;;;;;;;-70
2023/05/06 05:08:47;;;;;;;;;;;;;;;11.1;70.67773;101724.4;;;;-70
2023/05/06 05:13:50;;;;;;;;;;;;;;;11.18;70.16895;101730.5;;;;-70
2023/05/06 05:18:47;;;;;;;;;;;;;;;11.25;70.22559;101735.9;;;;-68
2023/05/06 05:23:46;;;;;;;;;;;;;;;11.35;70.15234;101734.7;;;;-69
2023/05/06 05:28:47;;;;;;;;;;;;;;;11.43;70.18652;101730.7;;;;-71
2023/05/06 05:33:47;;;;;;;;;;;;;;;11.57;70.02246;101735.3;;;;-69
2023/05/06 05:36:07;;;;;;;10.7;6.7;;;;;;;;;;;;;-70
2023/05/06 05:38:47;;;;;;;;;;;;;;;11.94;69.76855;101734.4;;;;-69
2023/05/06 05:43:47;;;;;;;;;;;;;;;12.32;69.64941;101736.1;;;;-69
2023/05/06 05:48:47;;;;;;;;;;;;;;;12.61;70.23145;101735.6;;;;-70
2023/05/06 05:53:47;;;;;;;;;;;;;;;12.98;68.9834;101734.4;;;;-70
2023/05/06 05:58:47;;;;;;;;;;;;;;;13.31;68.82227;101738;;;;-69
2023/05/06 06:03:47;;;;;;;;;;;;;;;13.82;67.71777;101742.3;;;;-68
2023/05/06 06:06:08;;;;;;;12.7;7.7;;;;;;;;;;;;;-70
2023/05/06 06:08:47;;;;;;;;;;;;;;;14.4;67.99707;101740.5;;;;-70
2023/05/06 06:13:46;;;;;;;;;;;;;;;14.68;66.40332;101729.7;;;;-70
2023/05/06 06:18:47;;;;;;;;;;;;;;;14.67;67.15332;101726.7;;;;-69
2023/05/06 06:23:46;;;;;;;;;;;;;;;14.57;67.2832;101730.8;;;;-69
2023/05/06 06:28:47;;;;;;;;;;;;;;;14.58;68.00195;101730.1;;;;-71
2023/05/06 06:33:50;;;;;;;;;;;;;;;14.85;67.37109;101735.3;;;;-71
2023/05/06 06:36:10;;;;;;;14.2;9;;;;;;;;;;;;;-70
2023/05/06 06:38:47;;;;;;;;;;;;;;;15.22;67.2041;101734.1;;;;-70
2023/05/06 06:43:47;;;;;;;;;;;;;;;15.3;66.29492;101740;;;;-70
2023/05/06 06:48:47;;;;;;;;;;;;;;;15.49;67.12012;101742.7;;;;-71
2023/05/06 06:53:47;;;;;;;;;;;;;;;16.01;66.35547;101745.8;;;;-70
2023/05/06 06:58:47;;;;;;;;;;;;;;;16.64;64.11816;101749.9;;;;-70
2023/05/06 07:03:47;;;;;;;;;;;;;;;17.13;62.58496;101753;;;;-72
2023/05/06 07:06:11;;;;;;;16.1;9.9;;;;;;;;;;;;;-70
2023/05/06 07:08:47;;;;;;;;;;;;;;;17.39;62.86133;101753.6;;;;-69
2023/05/06 07:13:47;;;;;;;;;;;;;;;17.71;62.45215;101753.3;;;;-70
2023/05/06 07:18:48;;;;;;;;;;;;;;;18.1;62.0791;101758.5;;;;-69
2023/05/06 07:23:46;;;;;;;;;;;;;;;18.39;61.90137;101757.3;;;;-68
2023/05/06 07:28:47;;;;;;;;;;;;;;;18.9;60.56738;101759.5;;;;-69
2023/05/06 07:33:46;;;;;;;;;;;;;;;19.22;59.5332;101755.9;;;;-70
2023/05/06 07:36:13;;;;;;;14.6;9;;;;;;;;;;;;;-70
2023/05/06 07:38:47;;;;;;;;;;;;;;;19.43;59.50391;101755.7;;;;-70
2023/05/06 07:43:47;;;;;;;;;;;;;;;19.45;60.23438;101756.8;;;;-70
2023/05/06 07:48:47;;;;;;;;;;;;;;;19.42;60.01367;101749.1;;;;-69
2023/05/06 07:53:47;;;;;;;;;;;;;;;19.54;60.54199;101753;;;;-70
2023/05/06 07:58:48;;;;;;;;;;;;;;;19.98;60.49902;101760.5;;;;-70
2023/05/06 08:03:47;;;;;;;;;;;;;;;20.55;59.09473;101766.2;;;;-70
2023/05/06 08:06:15;;;;;;;13.1;7.9;;;;;;;;;;;;;-70
2023/05/06 08:08:47;;;;;;;;;;;;;;;20.94;58.33691;101769.2;;;;-69
2023/05/06 08:13:47;;;;;;;;;;;;;;;20.89;58.41113;101775.5;;;;-70
2023/05/06 08:18:47;;;;;;;;;;;;;;;20.86;58.62402;101777.7;;;;-69
2023/05/06 08:23:47;;;;;;;;;;;;;;;21.06;58.66113;101771.9;;;;-69
2023/05/06 08:28:47;;;;;;;;;;;;;;;21.52;57.30566;101768.5;;;;-68
2023/05/06 08:33:47;;;;;;;;;;;;;;;21.63;57.12402;101769;;;;-70
2023/05/06 08:36:19;;;;;;;14.1;6.5;;;;;;;;;;;;;-69
2023/05/06 08:38:49;;;;;;;;;;;;;;;21.84;56.47754;101766.1;;;;-71
2023/05/06 08:43:48;;;;;;;;;;;;;;;22.1;56.68164;101764.2;;;;-70
2023/05/06 08:48:49;;;;;;;;;;;;;;;22.51;56.31055;101759;;;;-70
2023/05/06 08:53:50;;;;;;;;;;;;;;;22.74;55.46875;101760.8;;;;-70
2023/05/06 08:58:48;;;;;;;;;;;;;;;22.87;55.3252;101761.4;;;;-69
2023/05/06 09:03:50;;;;;;;;;;;;;;;23.16;54.49902;101760.5;;;;-69
2023/05/06 09:06:22;;;;;;;10.9;4.4;;;;;;;;;;;;;-69
2023/05/06 09:08:46;;;;;;;;;;;;;;;23.51;53.93262;101763;;;;-69
2023/05/06 09:13:47;;;;;;;;;;;;;;;23.97;53.37891;101763.5;;;;-70
2023/05/06 09:18:46;;;;;;;;;;;;;;;24.16;52.87207;101758.8;;;;-68
2023/05/06 09:23:47;;;;;;;;;;;;;;;24.22;52.99512;101755;;;;-68
2023/05/06 09:28:48;;;;;;;;;;;;;;;24.35;52.51563;101751.7;;;;-69
2023/05/06 09:33:47;;;;;;;;;;;;;;;24.4;51.74902;101747.5;;;;-68
2023/05/06 09:36:27;;;;;;;10;4.4;;;;;;;;;;;;;-68
2023/05/06 09:38:47;;;;;;;;;;;;;;;24.61;51.57813;101746.6;;;;-67
2023/05/06 09:43:48;;;;;;;;;;;;;;;24.76;51.45605;101743.1;;;;-67
2023/05/06 09:48:47;;;;;;;;;;;;;;;24.89;51.44824;101738.7;;;;-67
2023/05/06 09:53:47;;;;;;;;;;;;;;;25.15;50.85547;101733.4;;;;-67
2023/05/06 09:58:47;;;;;;;;;;;;;;;25.34;50.33301;101725.6;;;;-68
2023/05/06 10:03:50;;;;;;;;;;;;;;;25.23;49.53613;101727.1;;;;-67
2023/05/06 10:06:31;;;;;;;9.9;5.1;;;;;;;;;;;;;-68
2023/05/06 10:08:47;;;;;;;;;;;;;;;24.91;50.6543;101728.7;;;;-69
2023/05/06 10:13:47;;;;;;;;;;;;;;;25.12;50.85059;101723;;;;-67
2023/05/06 10:18:48;;;;;;;;;;;;;;;25.46;50.68164;101728.2;;;;-68
2023/05/06 10:23:51;;;;;;;;;;;;;;;25.78;49.72461;101724.6;;;;-67
2023/05/06 10:28:51;;;;;;;;;;;;;;;26.14;48.67578;101720.7;;;;-67
2023/05/06 10:33:48;;;;;;;;;;;;;;;26.46;48.49121;101722.3;;;;-67
2023/05/06 10:36:35;;;;;;;10.2;3.5;;;;;;;;;;;;;-68
2023/05/06 10:38:48;;;;;;;;;;;;;;;26.63;48.99512;101722.1;;;;-68
2023/05/06 10:43:48;;;;;;;;;;;;;;;26.97;48.87012;101719.3;;;;-67
2023/05/06 10:48:57;;;;;;;;;;;;;;;27.09;47.78027;101716;;;;-68
2023/05/06 10:54:03;;;;;;;;;;;;;;;27.17;47.22168;101719.5;;;;-69
2023/05/06 10:58:49;;;;;;;;;;;;;;;26.95;46.82813;101715.9;;;;-68
2023/05/06 11:03:48;;;;;;;;;;;;;;;26.57;46.625;101711.1;;;;-67
2023/05/06 11:06:39;;;;;;;9;3.6;;;;;;;;;;;;;-68
2023/05/06 11:08:57;;;;;;;;;;;;;;;26.22;46.75098;101705.9;;;;-68
2023/05/06 11:13:47;;;;;;;;;;;;;;;25.85;47.11816;101696.7;;;;-67
2023/05/06 11:18:50;;;;;;;;;;;;;;;25.74;49.74316;101696.1;;;;-68
2023/05/06 11:24:12;;;;;;;;;;;;;;;25.87;49.61816;101699.1;;;;-69
2023/05/06 11:28:47;;;;;;;;;;;;;;;26.05;50.37891;101698.4;;;;-68
2023/05/06 11:33:48;;;;;;;;;;;;;;;26.16;50.89941;101696.9;;;;-69
2023/05/06 11:36:47;;;;;;;7.6;3.3;;;;;;;;;;;;;-66
2023/05/06 11:38:48;;;;;;;;;;;;;;;25.89;48.41797;101694.5;;;;-67
2023/05/06 11:43:48;;;;;;;;;;;;;;;26.05;50.70215;101691.4;;;;-68
2023/05/06 11:48:47;;;;;;;;;;;;;;;26.37;50.53125;101692.7;;;;-68
2023/05/06 11:53:47;;;;;;;;;;;;;;;26.61;52.84766;101695.8;;;;-67
2023/05/06 11:58:47;;;;;;;;;;;;;;;26.57;53.30566;101701.1;;;;-68
2023/05/06 12:03:46;;;;;;;;;;;;;;;26.28;49.54785;101695.6;;;;-68
2023/05/06 12:06:47;;;;;;;7;3.2;;;;;;;;;;;;;-67
2023/05/06 12:08:47;;;;;;;;;;;;;;;26.15;50.66699;101695.5;;;;-68
2023/05/06 12:13:47;;;;;;;;;;;;;;;26.22;51.36914;101701.4;;;;-66
2023/05/06 12:18:47;;;;;;;;;;;;;;;26.27;50.24121;101700.4;;;;-67
2023/05/06 12:23:59;;;;;;;;;;;;;;;26.45;53.07227;101697.5;;;;-68
2023/05/06 12:28:47;;;;;;;;;;;;;;;26.91;53.60156;101704;;;;-68
2023/05/06 12:33:53;;;;;;;;;;;;;;;27.13;53.75391;101699.6;;;;-68
2023/05/06 12:36:51;;;;;;;5.2;1.9;;;;;;;;;;;;;-67
2023/05/06 12:38:52;;;;;;;;;;;;;;;27.27;52.21875;101697.1;;;;-69
2023/05/06 12:43:47;;;;;;;;;;;;;;;27.31;49.61523;101693.5;;;;-69
2023/05/06 12:48:56;;;;;;;;;;;;;;;27.45;54.38281;101692.2;;;;-67
2023/05/06 12:53:47;;;;;;;;;;;;;;;27.89;53.54297;101691.7;;;;-67
2023/05/06 12:58:47;;;;;;;;;;;;;;;28.23;54.22168;101694.8;;;;-66
2023/05/06 13:03:46;;;;;;;;;;;;;;;28.33;52.30566;101694.8;;;;-67
2023/05/06 13:06:56;;;;;;;5.4;1.9;;;;;;;;;;;;;-69
2023/05/06 13:08:46;;;;;;;;;;;;;;;28.19;53.14941;101693.5;;;;-69
2023/05/06 13:13:47;;;;;;;;;;;;;;;28;53.67188;101695.5;;;;-67
2023/05/06 13:18:46;;;;;;;;;;;;;;;27.9;53.16113;101695.7;;;;-68
2023/05/06 13:23:47;;;;;;;;;;;;;;;27.78;53.13574;101697.5;;;;-68
2023/05/06 13:28:46;;;;;;;;;;;;;;;27.83;55.05469;101693.5;;;;-69
2023/05/06 13:33:46;;;;;;;;;;;;;;;28.16;51.24023;101690.1;;;;-67
2023/05/06 13:37:01;;;;;;;4.3;2.2;;;;;;;;;;;;;-68
2023/05/06 13:38:46;;;;;;;;;;;;;;;28.4;54.34668;101689.8;;;;-67
2023/05/06 13:43:47;;;;;;;;;;;;;;;28.62;53.83789;101690.2;;;;-68
2023/05/06 13:48:46;;;;;;;;;;;;;;;28.67;52.85645;101680.5;;;;-68
2023/05/06 13:53:47;;;;;;;;;;;;;;;28.32;50.3291;101678.3;;;;-67
2023/05/06 13:58:47;;;;;;;;;;;;;;;28.05;51.82031;101675.2;;;;-68
2023/05/06 14:03:47;;;;;;;;;;;;;;;27.68;51.5918;101676.6;;;;-67
2023/05/06 14:07:06;;;;;;;5.9;2.7;;;;;;;;;;;;;-67
2023/05/06 14:08:47;;;;;;;;;;;;;;;27.37;52.04492;101670.6;;;;-68
2023/05/06 14:13:47;;;;;;;;;;;;;;;27.12;52.14258;101668.5;;;;-67
2023/05/06 14:18:46;;;;;;;;;;;;;;;26.92;53.33691;101668.8;;;;-67
2023/05/06 14:23:46;;;;;;;;;;;;;;;26.7;53.29785;101665.2;;;;-67
2023/05/06 14:28:47;;;;;;;;;;;;;;;26.43;53.3584;101662;;;;-68
2023/05/06 14:33:55;;;;;;;;;;;;;;;26.14;53.31348;101661.5;;;;-67
2023/05/06 14:37:11;;;;;;;7.9;4.3;;;;;;;;;;;;;-67
2023/05/06 14:38:47;;;;;;;;;;;;;;;25.89;53.95313;101660.2;;;;-67
2023/05/06 14:43:47;;;;;;;;;;;;;;;25.63;53.67969;101663;;;;-68
2023/05/06 14:48:47;;;;;;;;;;;;;;;25.43;54.34863;101667.5;;;;-66
2023/05/06 14:53:48;;;;;;;;;;;;;;;25.22;54.23047;101662.3;;;;-68
2023/05/06 14:58:47;;;;;;;;;;;;;;;25.04;54.27832;101656.6;;;;-69
2023/05/06 15:03:46;;;;;;;;;;;;;;;22.38;56.79785;101661.5;;;;-72
2023/05/06 15:07:16;;;;;;;33.6;17.5;;;;;;;;;;;;;-67
2023/05/06 15:08:47;;;;;;;;;;;;;;;23.67;54.87109;101649.4;;;;-67
2023/05/06 15:13:47;;;;;;;;;;;;;;;23.98;54.67871;101653.4;;;;-68
2023/05/06 15:18:46;;;;;;;;;;;;;;;23.91;54.6709;101657.7;;;;-69
2023/05/06 15:23:48;;;;;;;;;;;;;;;23.74;55.09766;101643.9;;;;-68
2023/05/06 15:28:46;;;;;;;;;;;;;;;23.53;55.42871;101646;;;;-68
2023/05/06 15:33:47;;;;;;;;;;;;;;;23.34;55.66895;101653.4;;;;-70
2023/05/06 15:37:21;;;;;;;24.6;16.9;;;;;;;;;;;;;-69
2023/05/06 15:38:58;;;;;;;;;;;;;;;23.13;55.67871;101643.3;;;;-69
2023/05/06 15:43:46;;;;;;;;;;;;;;;22.9;55.92383;101641.9;;;;-70
2023/05/06 15:48:46;;;;;;;;;;;;;;;22.63;55.87891;101646.8;;;;-71
2023/05/06 15:53:47;;;;;;;;;;;;;;;22.36;56.20117;101657.7;;;;-70
2023/05/06 15:58:47;;;;;;;;;;;;;;;22.14;56.61816;101662.6;;;;-68
2023/05/06 16:03:46;;;;;;;;;;;;;;;21.9;56.65723;101666.2;;;;-71
2023/05/06 16:07:25;;;;;;;25.1;15.7;;;;;;;;;;;;;-71
2023/05/06 16:08:46;;;;;;;;;;;;;;;21.66;57.2998;101669.8;;;;-69
2023/05/06 16:13:47;;;;;;;;;;;;;;;21.32;57.75977;101690.4;;;;-70
2023/05/06 16:18:46;;;;;;;;;;;;;;;21;58.37988;101711.9;;;;-70
2023/05/06 16:23:47;;;;;;;;;;;;;;;20.68;58.32715;101737.2;;;;-71
2023/05/06 16:28:47;;;;;;;;;;;;;;;20.4;58.90527;101735.6;;;;-70
2023/05/06 16:33:46;;;;;;;;;;;;;;;20.09;59.11426;101710.9;;;;-71
2023/05/06 16:37:28;;;;;;;19.1;11.2;;;;;;;;;;;;;-70
2023/05/06 16:38:46;;;;;;;;;;;;;;;19.89;59.33691;101700.9;;;;-71
2023/05/06 16:43:46;;;;;;;;;;;;;;;19.62;59.43848;101699.3;;;;-71
2023/05/06 16:48:47;;;;;;;;;;;;;;;19.44;59.40234;101697.9;;;;-72
2023/05/06 16:53:47;;;;;;;;;;;;;;;19.26;59.60547;101685.2;;;;-71
2023/05/06 16:58:46;;;;;;;;;;;;;;;19.09;60.28809;101675;;;;-70
2023/05/06 17:03:47;;;;;;;;;;;;;;;18.93;60.12891;101677.9;;;;-70
2023/05/06 17:07:32;;;;;;;16.1;9.6;;;;;;;;;;;;;-70
2023/05/06 17:08:47;;;;;;;;;;;;;;;18.78;60.79004;101677.9;;;;-71
2023/05/06 17:13:46;;;;;;;;;;;;;;;18.62;60.83691;101675.6;;;;-69
2023/05/06 17:18:47;;;;;;;;;;;;;;;18.51;60.95605;101675.1;;;;-70
2023/05/06 17:23:47;;;;;;;;;;;;;;;18.38;61.83398;101678.3;;;;-68
2023/05/06 17:28:47;;;;;;;;;;;;;;;18.28;61.82031;101677.4;;;;-70
2023/05/06 17:33:47;;;;;;;;;;;;;;;18.18;61.87402;101673.4;;;;-70
2023/05/06 17:37:35;;;;;;;14.1;7.7;;;;;;;;;;;;;-69
2023/05/06 17:38:47;;;;;;;;;;;;;;;18.05;62.11621;101673;;;;-69
2023/05/06 17:43:49;;;;;;;;;;;;;;;17.96;62.57715;101673;;;;-73
2023/05/06 17:48:46;;;;;;;;;;;;;;;17.86;62.42773;101670.4;;;;-76
2023/05/06 17:53:46;;;;;;;;;;;;;;;17.77;62.38086;101671.9;;;;-73
2023/05/06 17:58:47;;;;;;;;;;;;;;;17.67;63.04688;101665.2;;;;-74
2023/05/06 18:03:46;;;;;;;;;;;;;;;17.58;62.88672;101666.7;;;;-73
2023/05/06 18:07:38;;;;;;;9.7;5.5;;;;;;;;;;;;;-73
2023/05/06 18:08:47;;;;;;;;;;;;;;;17.49;62.80566;101667.1;;;;-74
2023/05/06 18:13:46;;;;;;;;;;;;;;;17.4;62.80469;101663.5;;;;-76
2023/05/06 18:18:47;;;;;;;;;;;;;;;17.3;63.15137;101663.3;;;;-70
2023/05/06 18:23:47;;;;;;;;;;;;;;;17.23;63.50293;101673.5;;;;-70
2023/05/06 18:28:47;;;;;;;;;;;;;;;17.13;63.39941;101671.3;;;;-69
2023/05/06 18:33:47;;;;;;;;;;;;;;;17.03;63.73438;101678;;;;-68
2023/05/06 18:37:41;;;;;;;7.5;3.7;;;;;;;;;;;;;-69
2023/05/06 18:38:46;;;;;;;;;;;;;;;16.93;64.1377;101678.5;;;;-70
2023/05/06 18:43:46;;;;;;;;;;;;;;;16.82;64.32422;101682.6;;;;-70
2023/05/06 18:48:46;;;;;;;;;;;;;;;16.74;64.74121;101686.5;;;;-68
2023/05/06 18:53:47;;;;;;;;;;;;;;;16.64;64.53516;101693;;;;-69
2023/05/06 18:58:47;;;;;;;;;;;;;;;16.55;64.79297;101699.3;;;;-69
2023/05/06 19:03:47;;;;;;;;;;;;;;;16.43;64.9668;101704.9;;;;-69
2023/05/06 19:07:43;;;;;;;7.6;3.3;;;;;;;;;;;;;-70
2023/05/06 19:08:46;;;;;;;;;;;;;;;16.34;65.26758;101707.8;;;;-70
2023/05/06 19:13:47;;;;;;;;;;;;;;;16.28;65.54102;101719.7;;;;-71
2023/05/06 19:18:46;;;;;;;;;;;;;;;16.18;65.18848;101724.6;;;;-70
2023/05/06 19:23:47;;;;;;;;;;;;;;;16.12;65.39258;101735.7;;;;-69
2023/05/06 19:28:46;;;;;;;;;;;;;;;16.02;65.35645;101735.5;;;;-70
2023/05/06 19:33:46;;;;;;;;;;;;;;;15.97;65.34863;101731.6;;;;-70
2023/05/06 19:37:46;;;;;;;7.3;3.1;;;;;;;;;;;;;-70
2023/05/06 19:38:46;;;;;;;;;;;;;;;15.9;65.28223;101739.1;;;;-70
2023/05/06 19:43:47;;;;;;;;;;;;;;;15.84;65.27344;101744;;;;-70
2023/05/06 19:48:48;;;;;;;;;;;;;;;15.78;65.08594;101744.8;;;;-70
2023/05/06 19:53:47;;;;;;;;;;;;;;;15.73;65.12305;101747;;;;-69
2023/05/06 19:58:47;;;;;;;;;;;;;;;15.7;65.52344;101754.7;;;;-70
2023/05/06 20:03:47;;;;;;;;;;;;;;;15.65;65.7627;101745.5;;;;-71
2023/05/06 20:07:48;;;;;;;5.4;2.6;;;;;;;;;;;;;-69
2023/05/06 20:08:46;;;;;;;;;;;;;;;15.59;65.78711;101739.7;;;;-70
2023/05/06 20:13:47;;;;;;;;;;;;;;;15.54;65.79102;101732.3;;;;-71
2023/05/06 20:18:47;;;;;;;;;;;;;;;15.53;65.75586;101734.9;;;;-70
2023/05/06 20:23:47;;;;;;;;;;;;;;;15.48;65.77051;101732.3;;;;-70
2023/05/06 20:28:47;;;;;;;;;;;;;;;15.42;65.8291;101729.4;;;;-71
2023/05/06 20:33:46;;;;;;;;;;;;;;;15.4;66.39844;101729.3;;;;-71
2023/05/06 20:37:53;;;;;;;7.2;2.8;;;;;;;;;;;;;-70
2023/05/06 20:38:50;;;;;;;;;;;;;;;15.34;66.14355;101730.6;;;;-70
2023/05/06 20:43:46;;;;;;;;;;;;;;;15.31;66.18262;101733.3;;;;-70
2023/05/06 20:48:50;;;;;;;;;;;;;;;15.27;66.12305;101731.7;;;;-70
2023/05/06 20:53:48;;;;;;;;;;;;;;;15.24;66.46582;101729.4;;;;-72
2023/05/06 20:58:47;;;;;;;;;;;;;;;15.19;65.97559;101730.3;;;;-70
2023/05/06 21:03:48;;;;;;;;;;;;;;;15.16;66.4541;101727.6;;;;-70
2023/05/06 21:07:53;;;;;;;5.7;2.7;;;;;;;;;;;;;-71
2023/05/06 21:08:47;;;;;;;;;;;;;;;15.1;66.09668;101722.9;;;;-69
2023/05/06 21:13:47;;;;;;;;;;;;;;;15.05;66.26855;101724.3;;;;-69
2023/05/06 21:18:46;;;;;;;;;;;;;;;15.05;66.2793;101725.2;;;;-70
2023/05/06 21:23:47;;;;;;;;;;;;;;;15.02;66.43164;101721.6;;;;-69
2023/05/06 21:28:50;;;;;;;;;;;;;;;14.98;66.57129;101723.3;;;;-70
2023/05/06 21:33:46;;;;;;;;;;;;;;;14.94;67.09375;101720.6;;;;-69
2023/05/06 21:37:55;;;;;;;5.6;2.9;;;;;;;;;;;;;-72
2023/05/06 21:38:47;;;;;;;;;;;;;;;14.9;66.65039;101718;;;;-69
2023/05/06 21:43:46;;;;;;;;;;;;;;;14.85;66.76563;101715.9;;;;-70
2023/05/06 21:48:46;;;;;;;;;;;;;;;14.81;67.12988;101711.4;;;;-69
2023/05/06 21:53:47;;;;;;;;;;;;;;;14.78;67.11328;101710.7;;;;-70
2023/05/06 21:58:46;;;;;;;;;;;;;;;14.75;66.8623;101705.4;;;;-71
2023/05/06 22:03:47;;;;;;;;;;;;;;;14.71;66.93555;101695.7;;;;-70
2023/05/06 22:08:02;;;;;;;4.2;2.7;;;;;;;;;;;;;-71
2023/05/06 22:08:47;;;;;;;;;;;;;;;14.69;66.97656;101689.9;;;;-69
2023/05/06 22:13:46;;;;;;;;;;;;;;;14.67;66.83887;101688.7;;;;-70
2023/05/06 22:18:47;;;;;;;;;;;;;;;14.63;66.91211;101690.3;;;;-69
2023/05/06 22:23:46;;;;;;;;;;;;;;;14.62;66.94434;101685.6;;;;-69
2023/05/06 22:28:46;;;;;;;;;;;;;;;14.6;67.08594;101691.1;;;;-70
2023/05/06 22:33:46;;;;;;;;;;;;;;;14.57;66.83496;101696.8;;;;-69
2023/05/06 22:38:00;;;;;;;8.3;4.5;;;;;;;;;;;;;-68
2023/05/06 22:38:46;;;;;;;;;;;;;;;14.54;66.93164;101702.3;;;;-69
2023/05/06 22:43:46;;;;;;;;;;;;;;;14.5;66.87012;101703.2;;;;-70
2023/05/06 22:48:47;;;;;;;;;;;;;;;14.51;67.0625;101699.6;;;;-70
2023/05/06 22:53:46;;;;;;;;;;;;;;;14.49;67.20508;101701.1;;;;-70
2023/05/06 22:58:46;;;;;;;;;;;;;;;14.45;67.48926;101699.4;;;;-68
2023/05/06 23:03:47;;;;;;;;;;;;;;;14.43;66.99512;101695.6;;;;-70
2023/05/06 23:08:02;;;;;;;8.7;5.6;;;;;;;;;;;;;-69
2023/05/06 23:08:46;;;;;;;;;;;;;;;14.43;67.24023;101691.7;;;;-69
2023/05/06 23:13:46;;;;;;;;;;;;;;;14.41;67.00293;101692.6;;;;-70
2023/05/06 23:18:46;;;;;;;;;;;;;;;14.41;67.10156;101689.3;;;;-69
2023/05/06 23:23:46;;;;;;;;;;;;;;;14.38;67.43457;101697.5;;;;-69
2023/05/06 23:28:46;;;;;;;;;;;;;;;14.36;67.2959;101699.8;;;;-69
2023/05/06 23:33:46;;;;;;;;;;;;;;;14.35;67.82324;101705.1;;;;-70
2023/05/06 23:38:04;;;;;;;10.3;6.1;;;;;;;;;;;;;-68
2023/05/06 23:38:47;;;;;;;;;;;;;;;14.35;67.49707;101706.3;;;;-68
2023/05/06 23:43:46;;;;;;;;;;;;;;;14.33;67.69531;101702.7;;;;-69
2023/05/06 23:48:46;;;;;;;;;;;;;;;14.33;68.08594;101704;;;;-68
2023/05/06 23:53:46;;;;;;;;;;;;;;;14.32;67.91797;101707.8;;;;-73
2023/05/06 23:58:46;;;;;;;;;;;;;;;14.31;68.27539;101709;;;;-76
